createdAt,value
2023-05-19T00:00:14.951Z,9.64
2023-05-19T00:01:15.858Z,9.65
2023-05-19T00:02:14.931Z,9.66
2023-05-19T00:03:15.380Z,9.75
2023-05-19T00:04:15.013Z,9.81
2023-05-19T00:05:14.830Z,9.86
2023-05-19T00:06:15.783Z,9.86
2023-05-19T00:07:15.196Z,9.83
2023-05-19T00:08:14.744Z,9.86
2023-05-19T00:09:15.289Z,9.84
2023-05-19T00:10:14.985Z,9.79
2023-05-19T00:11:16.213Z,9.78
2023-05-19T00:12:15.329Z,9.84
2023-05-19T00:13:14.889Z,9.84
2023-05-19T00:14:14.882Z,9.79
2023-05-19T00:15:14.830Z,9.78
2023-05-19T00:16:15.169Z,9.79
2023-05-19T00:17:14.998Z,9.76
2023-05-19T00:18:14.856Z,9.75
2023-05-19T00:19:14.693Z,9.71
2023-05-19T00:20:14.730Z,9.69
2023-05-19T00:21:15.107Z,9.69
2023-05-19T00:22:14.431Z,9.68
2023-05-19T00:23:14.787Z,9.66
2023-05-19T00:24:14.414Z,9.65
2023-05-19T00:25:15.415Z,9.64
2023-05-19T00:26:15.011Z,9.64
2023-05-19T00:27:15.211Z,9.60
2023-05-19T00:28:14.583Z,9.54
2023-05-19T00:29:14.704Z,9.51
2023-05-19T00:30:14.870Z,9.48
2023-05-19T00:31:14.632Z,9.43
2023-05-19T00:32:14.728Z,9.43
2023-05-19T00:33:14.462Z,9.43
2023-05-19T00:34:14.549Z,9.40
2023-05-19T00:35:15.037Z,9.39
2023-05-19T00:36:14.676Z,9.42
2023-05-19T00:37:14.588Z,9.39
2023-05-19T00:38:24.774Z,9.32
2023-05-19T00:39:14.864Z,9.28
2023-05-19T00:40:14.839Z,9.23
2023-05-19T00:41:24.155Z,9.20
2023-05-19T00:42:14.520Z,9.20
2023-05-19T00:43:16.099Z,9.18
2023-05-19T00:44:14.662Z,9.18
2023-05-19T00:45:14.366Z,9.29
2023-05-19T00:46:14.490Z,9.29
2023-05-19T00:47:14.242Z,9.28
2023-05-19T00:48:14.451Z,9.28
2023-05-19T00:49:14.630Z,9.32
2023-05-19T00:50:18.033Z,9.35
2023-05-19T00:51:14.404Z,9.31
2023-05-19T00:52:14.373Z,9.29
2023-05-19T00:53:14.681Z,9.24
2023-05-19T00:54:14.442Z,9.21
2023-05-19T00:55:14.171Z,9.24
2023-05-19T00:56:13.206Z,9.28
2023-05-19T00:57:13.194Z,9.23
2023-05-19T00:58:13.201Z,9.21
2023-05-19T00:59:13.185Z,9.21
2023-05-19T01:00:13.171Z,9.20
2023-05-19T01:01:13.198Z,9.17
2023-05-19T01:02:13.189Z,9.13
2023-05-19T01:03:13.394Z,9.02
2023-05-19T01:04:13.111Z,9.01
2023-05-19T01:05:13.125Z,8.96
2023-05-19T01:06:13.103Z,8.99
2023-05-19T01:07:13.084Z,9.02
2023-05-19T01:08:13.087Z,9.01
2023-05-19T01:09:13.044Z,8.99
2023-05-19T01:10:13.102Z,8.99
2023-05-19T01:11:13.281Z,8.96
2023-05-19T01:12:13.076Z,8.92
2023-05-19T01:13:13.013Z,8.92
2023-05-19T01:14:12.988Z,8.87
2023-05-19T01:15:12.964Z,8.83
2023-05-19T01:16:13.128Z,8.83
2023-05-19T01:17:12.952Z,8.79
2023-05-19T01:18:12.990Z,8.80
2023-05-19T01:19:12.975Z,8.77
2023-05-19T01:20:12.939Z,8.76
2023-05-19T01:21:12.930Z,8.73
2023-05-19T01:22:12.940Z,8.70
2023-05-19T01:23:12.898Z,8.68
2023-05-19T01:24:12.894Z,8.66
2023-05-19T01:25:12.851Z,8.61
2023-05-19T01:26:12.859Z,8.56
2023-05-19T01:27:12.838Z,8.58
2023-05-19T01:28:12.828Z,8.58
2023-05-19T01:29:12.821Z,8.58
2023-05-19T01:30:12.808Z,8.55
2023-05-19T01:31:12.814Z,8.52
2023-05-19T01:32:12.835Z,8.52
2023-05-19T01:33:12.784Z,8.48
2023-05-19T01:34:12.750Z,8.45
2023-05-19T01:35:12.755Z,8.40
2023-05-19T01:36:12.732Z,8.38
2023-05-19T01:37:12.711Z,8.38
2023-05-19T01:38:12.758Z,8.37
2023-05-19T01:39:12.706Z,8.30
2023-05-19T01:40:15.412Z,8.29
2023-05-19T01:41:12.686Z,8.28
2023-05-19T01:42:12.706Z,8.23
2023-05-19T01:43:12.692Z,8.25
2023-05-19T01:44:12.696Z,8.25
2023-05-19T01:45:12.636Z,8.25
2023-05-19T01:46:12.632Z,8.25
2023-05-19T01:47:12.623Z,8.23
2023-05-19T01:48:12.603Z,8.20
2023-05-19T01:49:12.662Z,8.20
2023-05-19T01:50:12.559Z,8.16
2023-05-19T01:51:12.565Z,8.11
2023-05-19T01:52:12.553Z,8.10
2023-05-19T01:53:12.572Z,8.08
2023-05-19T01:54:12.581Z,8.05
2023-05-19T01:55:12.508Z,8.05
2023-05-19T01:56:12.501Z,8.02
2023-05-19T01:57:12.495Z,8.01
2023-05-19T01:58:12.520Z,8.02
2023-05-19T01:59:12.512Z,8.04
2023-05-19T02:00:12.453Z,8.02
2023-05-19T02:01:12.517Z,8.00
2023-05-19T02:02:12.446Z,7.93
2023-05-19T02:03:12.454Z,7.97
2023-05-19T02:04:12.500Z,7.93
2023-05-19T02:05:12.412Z,7.93
2023-05-19T02:06:12.402Z,7.92
2023-05-19T02:07:12.389Z,7.89
2023-05-19T02:08:12.380Z,7.89
2023-05-19T02:09:12.365Z,7.90
2023-05-19T02:10:12.350Z,7.85
2023-05-19T02:11:12.348Z,7.85
2023-05-19T02:12:12.335Z,7.85
2023-05-19T02:13:12.304Z,7.83
2023-05-19T02:14:12.296Z,7.86
2023-05-19T02:15:12.308Z,7.80
2023-05-19T02:16:12.329Z,7.80
2023-05-19T02:17:12.283Z,7.75
2023-05-19T02:18:12.285Z,7.74
2023-05-19T02:19:12.249Z,7.71
2023-05-19T02:20:12.223Z,7.74
2023-05-19T02:21:12.249Z,7.71
2023-05-19T02:22:12.221Z,7.68
2023-05-19T02:23:12.203Z,7.68
2023-05-19T02:24:12.201Z,7.64
2023-05-19T02:25:12.167Z,7.63
2023-05-19T02:26:12.165Z,7.61
2023-05-19T02:27:12.148Z,7.60
2023-05-19T02:28:12.392Z,7.58
2023-05-19T02:29:12.140Z,7.57
2023-05-19T02:30:12.114Z,7.55
2023-05-19T02:31:12.103Z,7.52
2023-05-19T02:32:12.118Z,7.50
2023-05-19T02:33:12.120Z,7.49
2023-05-19T02:34:12.073Z,7.49
2023-05-19T02:35:12.055Z,7.46
2023-05-19T02:36:12.033Z,7.45
2023-05-19T02:37:12.425Z,7.46
2023-05-19T02:38:12.019Z,7.45
2023-05-19T02:39:12.043Z,7.40
2023-05-19T02:40:12.018Z,7.40
2023-05-19T02:41:11.976Z,7.40
2023-05-19T02:42:12.005Z,7.34
2023-05-19T02:43:11.985Z,7.34
2023-05-19T02:44:11.949Z,7.32
2023-05-19T02:45:12.056Z,7.34
2023-05-19T02:46:11.951Z,7.32
2023-05-19T02:47:12.007Z,7.34
2023-05-19T02:48:11.983Z,7.31
2023-05-19T02:49:11.908Z,7.28
2023-05-19T02:50:11.907Z,7.30
2023-05-19T02:51:11.878Z,7.27
2023-05-19T02:52:11.861Z,7.25
2023-05-19T02:53:11.851Z,7.23
2023-05-19T02:54:11.960Z,7.25
2023-05-19T02:55:11.833Z,7.23
2023-05-19T02:56:11.827Z,7.17
2023-05-19T02:57:11.790Z,7.16
2023-05-19T02:58:11.808Z,7.16
2023-05-19T02:59:11.800Z,7.15
2023-05-19T03:00:11.776Z,7.12
2023-05-19T03:01:11.765Z,7.09
2023-05-19T03:02:11.914Z,7.05
2023-05-19T03:03:11.816Z,7.03
2023-05-19T03:04:11.747Z,7.03
2023-05-19T03:05:11.724Z,7.02
2023-05-19T03:06:14.504Z,6.98
2023-05-19T03:07:11.671Z,6.95
2023-05-19T03:08:11.691Z,6.95
2023-05-19T03:09:11.682Z,6.94
2023-05-19T03:10:11.663Z,6.91
2023-05-19T03:11:11.655Z,6.89
2023-05-19T03:12:11.643Z,6.88
2023-05-19T03:13:11.646Z,6.89
2023-05-19T03:14:11.666Z,6.91
2023-05-19T03:15:11.604Z,6.89
2023-05-19T03:16:11.655Z,6.88
2023-05-19T03:17:11.633Z,6.89
2023-05-19T03:18:11.628Z,6.88
2023-05-19T03:19:11.642Z,6.87
2023-05-19T03:20:11.544Z,6.87
2023-05-19T03:21:11.551Z,6.81
2023-05-19T03:22:11.528Z,6.77
2023-05-19T03:23:11.547Z,6.79
2023-05-19T03:24:11.496Z,6.80
2023-05-19T03:25:11.504Z,6.84
2023-05-19T03:26:11.520Z,6.84
2023-05-19T03:27:11.480Z,6.79
2023-05-19T03:28:11.451Z,6.79
2023-05-19T03:29:11.496Z,6.84
2023-05-19T03:30:11.456Z,6.80
2023-05-19T03:31:11.450Z,6.77
2023-05-19T03:32:11.445Z,6.77
2023-05-19T03:33:11.542Z,6.77
2023-05-19T03:34:11.379Z,6.74
2023-05-19T03:35:11.391Z,6.69
2023-05-19T03:36:11.384Z,6.67
2023-05-19T03:37:11.700Z,6.66
2023-05-19T03:38:11.352Z,6.62
2023-05-19T03:39:11.334Z,6.67
2023-05-19T03:40:11.346Z,6.67
2023-05-19T03:41:11.297Z,6.69
2023-05-19T03:42:11.314Z,6.69
2023-05-19T03:43:11.310Z,6.70
2023-05-19T03:44:11.284Z,6.70
2023-05-19T03:45:11.275Z,6.69
2023-05-19T03:46:11.279Z,6.67
2023-05-19T03:47:11.272Z,6.69
2023-05-19T03:48:11.242Z,6.66
2023-05-19T03:49:11.227Z,6.64
2023-05-19T03:50:11.237Z,6.67
2023-05-19T03:51:11.552Z,6.66
2023-05-19T03:52:11.200Z,6.67
2023-05-19T03:53:11.159Z,6.70
2023-05-19T03:54:11.160Z,6.73
2023-05-19T03:55:11.179Z,6.73
2023-05-19T03:56:11.145Z,6.73
2023-05-19T03:57:11.185Z,6.70
2023-05-19T03:58:11.142Z,6.66
2023-05-19T03:59:11.133Z,6.64
2023-05-19T04:00:11.242Z,6.62
2023-05-19T04:01:11.070Z,6.64
2023-05-19T04:02:11.169Z,6.61
2023-05-19T04:03:11.247Z,6.62
2023-05-19T04:04:11.079Z,6.66
2023-05-19T04:05:11.354Z,6.66
2023-05-19T04:06:11.046Z,6.64
2023-05-19T04:07:11.021Z,6.62
2023-05-19T04:08:11.051Z,6.61
2023-05-19T04:09:11.321Z,6.61
2023-05-19T04:10:11.313Z,6.62
2023-05-19T04:11:11.012Z,6.61
2023-05-19T04:12:10.959Z,6.64
2023-05-19T04:13:11.028Z,6.64
2023-05-19T04:14:10.937Z,6.64
2023-05-19T04:15:10.924Z,6.66
2023-05-19T04:16:11.240Z,6.70
2023-05-19T04:17:10.889Z,6.71
2023-05-19T04:18:10.926Z,6.70
2023-05-19T04:19:18.031Z,6.70
2023-05-19T04:20:18.204Z,6.71
2023-05-19T04:21:17.860Z,6.71
2023-05-19T04:22:10.840Z,6.76
2023-05-19T04:23:18.154Z,6.76
2023-05-19T04:24:11.101Z,6.79
2023-05-19T04:25:10.817Z,6.81
2023-05-19T04:26:10.812Z,6.84
2023-05-19T04:27:10.794Z,6.88
2023-05-19T04:28:10.787Z,6.89
2023-05-19T04:29:10.780Z,6.89
2023-05-19T04:30:10.758Z,6.94
2023-05-19T04:31:10.849Z,6.97
2023-05-19T04:32:10.753Z,6.97
2023-05-19T04:33:10.744Z,7.02
2023-05-19T04:34:10.696Z,7.05
2023-05-19T04:35:10.692Z,7.09
2023-05-19T04:36:10.788Z,7.07
2023-05-19T04:37:10.980Z,7.10
2023-05-19T04:38:11.187Z,7.13
2023-05-19T04:39:10.658Z,7.16
2023-05-19T04:40:10.652Z,7.17
2023-05-19T04:41:10.713Z,7.20
2023-05-19T04:42:10.616Z,7.24
2023-05-19T04:43:10.599Z,7.27
2023-05-19T04:44:10.579Z,7.30
2023-05-19T04:45:10.578Z,7.35
2023-05-19T04:46:13.169Z,7.39
2023-05-19T04:47:10.884Z,7.43
2023-05-19T04:48:10.560Z,7.45
2023-05-19T04:49:10.579Z,7.46
2023-05-19T04:50:10.578Z,7.49
2023-05-19T04:51:10.587Z,7.52
2023-05-19T04:52:10.823Z,7.57
2023-05-19T04:53:12.396Z,7.57
2023-05-19T04:54:10.495Z,7.58
2023-05-19T04:55:10.505Z,7.60
2023-05-19T04:56:10.441Z,7.60
2023-05-19T04:57:10.494Z,7.61
2023-05-19T04:58:10.421Z,7.67
2023-05-19T04:59:10.415Z,7.68
2023-05-19T05:00:10.782Z,7.69
2023-05-19T05:01:10.404Z,7.69
2023-05-19T05:02:10.581Z,7.77
2023-05-19T05:03:10.481Z,7.82
2023-05-19T05:04:10.492Z,7.85
2023-05-19T05:05:10.371Z,7.87
2023-05-19T05:06:10.390Z,7.92
2023-05-19T05:07:10.341Z,7.97
2023-05-19T05:08:10.344Z,7.98
2023-05-19T05:09:10.333Z,8.02
2023-05-19T05:10:10.673Z,8.04
2023-05-19T05:11:10.287Z,8.05
2023-05-19T05:12:10.284Z,8.10
2023-05-19T05:13:11.802Z,8.11
2023-05-19T05:14:10.263Z,8.15
2023-05-19T05:15:10.240Z,8.18
2023-05-19T05:16:10.260Z,8.20
2023-05-19T05:17:10.552Z,8.23
2023-05-19T05:18:10.320Z,8.25
2023-05-19T05:19:10.229Z,8.29
2023-05-19T05:20:10.175Z,8.29
2023-05-19T05:21:10.180Z,8.33
2023-05-19T05:22:10.183Z,8.36
2023-05-19T05:23:10.156Z,8.38
2023-05-19T05:24:10.136Z,8.41
2023-05-19T05:25:10.162Z,8.45
2023-05-19T05:26:10.132Z,8.48
2023-05-19T05:27:10.258Z,8.53
2023-05-19T05:28:10.104Z,8.56
2023-05-19T05:29:10.101Z,8.59
2023-05-19T05:30:10.080Z,8.62
2023-05-19T05:31:12.226Z,8.65
2023-05-19T05:32:13.102Z,8.70
2023-05-19T05:33:10.541Z,8.73
2023-05-19T05:34:10.941Z,8.77
2023-05-19T05:35:10.047Z,8.77
2023-05-19T05:36:10.039Z,8.83
2023-05-19T05:37:10.132Z,8.86
2023-05-19T05:38:10.309Z,8.86
2023-05-19T05:39:09.960Z,8.86
2023-05-19T05:40:12.092Z,8.89
2023-05-19T05:41:10.880Z,8.94
2023-05-19T05:42:09.950Z,8.94
2023-05-19T05:43:10.235Z,8.96
2023-05-19T05:44:09.912Z,9.01
2023-05-19T05:45:09.882Z,9.04
2023-05-19T05:46:09.969Z,9.10
2023-05-19T05:47:09.874Z,9.13
2023-05-19T05:48:09.904Z,9.13
2023-05-19T05:49:09.867Z,9.13
2023-05-19T05:50:10.120Z,9.15
2023-05-19T05:51:09.853Z,9.18
2023-05-19T05:52:09.874Z,9.15
2023-05-19T05:53:10.111Z,9.18
2023-05-19T05:54:09.830Z,9.24
2023-05-19T05:55:09.820Z,9.32
2023-05-19T05:56:09.760Z,9.36
2023-05-19T05:57:09.786Z,9.40
2023-05-19T05:58:09.763Z,9.46
2023-05-19T05:59:09.852Z,9.48
2023-05-19T06:00:09.742Z,9.51
2023-05-19T06:01:09.718Z,9.56
2023-05-19T06:02:09.778Z,9.54
2023-05-19T06:03:10.035Z,9.57
2023-05-19T06:04:09.678Z,9.60
2023-05-19T06:05:09.749Z,9.66
2023-05-19T06:06:09.672Z,9.69
2023-05-19T06:07:09.671Z,9.75
2023-05-19T06:08:10.826Z,9.75
2023-05-19T06:09:09.627Z,9.79
2023-05-19T06:10:09.654Z,9.86
2023-05-19T06:11:09.592Z,9.90
2023-05-19T06:12:16.951Z,9.91
2023-05-19T06:13:16.923Z,9.97
2023-05-19T06:14:09.561Z,10.01
2023-05-19T06:15:16.870Z,10.07
2023-05-19T06:16:09.616Z,10.09
2023-05-19T06:17:09.520Z,10.12
2023-05-19T06:18:09.742Z,10.14
2023-05-19T06:19:09.555Z,10.17
2023-05-19T06:20:09.518Z,10.22
2023-05-19T06:21:09.469Z,10.27
2023-05-19T06:22:09.746Z,10.32
2023-05-19T06:23:09.465Z,10.32
2023-05-19T06:24:09.455Z,10.34
2023-05-19T06:25:09.444Z,10.44
2023-05-19T06:26:09.440Z,10.48
2023-05-19T06:27:09.406Z,10.51
2023-05-19T06:28:09.427Z,10.52
2023-05-19T06:29:09.373Z,10.56
2023-05-19T06:30:09.427Z,10.63
2023-05-19T06:31:09.402Z,10.67
2023-05-19T06:32:09.345Z,10.70
2023-05-19T06:33:09.745Z,10.74
2023-05-19T06:34:09.319Z,10.78
2023-05-19T06:35:09.322Z,10.81
2023-05-19T06:36:09.713Z,10.85
2023-05-19T06:37:09.315Z,10.88
2023-05-19T06:38:09.284Z,10.91
2023-05-19T06:39:09.252Z,10.96
2023-05-19T06:40:09.252Z,11.00
2023-05-19T06:41:09.239Z,11.04
2023-05-19T06:42:09.264Z,11.09
2023-05-19T06:43:09.224Z,11.15
2023-05-19T06:44:09.212Z,11.14
2023-05-19T06:45:09.263Z,11.17
2023-05-19T06:46:09.189Z,11.18
2023-05-19T06:47:09.229Z,11.25
2023-05-19T06:48:09.216Z,11.29
2023-05-19T06:49:09.162Z,11.36
2023-05-19T06:50:09.139Z,11.40
2023-05-19T06:51:09.124Z,11.43
2023-05-19T06:52:09.126Z,11.47
2023-05-19T06:53:09.134Z,11.47
2023-05-19T06:54:09.118Z,11.49
2023-05-19T06:55:11.816Z,11.52
2023-05-19T06:56:09.087Z,11.57
2023-05-19T06:57:09.046Z,11.61
2023-05-19T06:58:09.058Z,11.64
2023-05-19T06:59:09.036Z,11.69
2023-05-19T07:00:09.035Z,11.73
2023-05-19T07:01:09.059Z,11.75
2023-05-19T07:02:09.377Z,11.79
2023-05-19T07:03:11.841Z,11.88
2023-05-19T07:04:09.097Z,11.94
2023-05-19T07:05:09.352Z,11.99
2023-05-19T07:06:08.978Z,12.02
2023-05-19T07:07:08.928Z,12.07
2023-05-19T07:08:08.918Z,12.12
2023-05-19T07:09:08.940Z,12.17
2023-05-19T07:10:08.919Z,12.23
2023-05-19T07:11:08.934Z,12.27
2023-05-19T07:12:08.880Z,12.34
2023-05-19T07:13:08.877Z,12.37
2023-05-19T07:14:08.916Z,12.34
2023-05-19T07:15:08.905Z,12.31
2023-05-19T07:16:08.870Z,12.31
2023-05-19T07:17:08.843Z,12.34
2023-05-19T07:18:08.857Z,12.35
2023-05-19T07:19:10.635Z,12.38
2023-05-19T07:20:08.794Z,12.38
2023-05-19T07:21:08.771Z,12.45
2023-05-19T07:22:08.795Z,12.49
2023-05-19T07:23:08.759Z,12.52
2023-05-19T07:24:08.762Z,12.57
2023-05-19T07:25:09.093Z,12.65
2023-05-19T07:26:08.715Z,12.72
2023-05-19T07:27:08.716Z,12.79
2023-05-19T07:28:08.720Z,12.75
2023-05-19T07:29:08.724Z,12.72
2023-05-19T07:30:08.700Z,12.72
2023-05-19T07:31:08.670Z,12.62
2023-05-19T07:32:08.697Z,12.57
2023-05-19T07:33:08.707Z,12.60
2023-05-19T07:34:08.700Z,12.68
2023-05-19T07:35:08.654Z,12.78
2023-05-19T07:36:08.624Z,12.90
2023-05-19T07:37:08.598Z,13.00
2023-05-19T07:38:08.606Z,13.05
2023-05-19T07:39:08.620Z,13.12
2023-05-19T07:40:08.574Z,13.17
2023-05-19T07:41:08.626Z,13.22
2023-05-19T07:42:08.586Z,13.20
2023-05-19T07:43:08.619Z,13.20
2023-05-19T07:44:08.553Z,13.19
2023-05-19T07:45:08.502Z,13.17
2023-05-19T07:46:08.536Z,13.23
2023-05-19T07:47:08.533Z,13.26
2023-05-19T07:48:08.563Z,13.23
2023-05-19T07:49:08.490Z,13.26
2023-05-19T07:50:08.466Z,13.32
2023-05-19T07:51:08.453Z,13.42
2023-05-19T07:52:08.755Z,13.48
2023-05-19T07:53:08.422Z,13.51
2023-05-19T07:54:08.421Z,13.51
2023-05-19T07:55:08.445Z,13.46
2023-05-19T07:56:08.395Z,13.45
2023-05-19T07:57:08.401Z,13.54
2023-05-19T07:58:11.204Z,13.63
2023-05-19T07:59:08.362Z,13.71
2023-05-19T08:00:08.355Z,13.78
2023-05-19T08:01:08.327Z,13.87
2023-05-19T08:02:08.344Z,13.96
2023-05-19T08:03:08.409Z,14.03
2023-05-19T08:04:10.289Z,14.09
2023-05-19T08:05:16.625Z,14.15
2023-05-19T08:06:15.317Z,14.22
2023-05-19T08:07:08.279Z,14.27
2023-05-19T08:08:08.236Z,14.24
2023-05-19T08:09:08.235Z,14.17
2023-05-19T08:10:08.237Z,14.18
2023-05-19T08:11:08.208Z,14.18
2023-05-19T08:12:08.220Z,14.21
2023-05-19T08:13:08.590Z,14.25
2023-05-19T08:14:08.193Z,14.29
2023-05-19T08:15:08.194Z,14.29
2023-05-19T08:16:08.151Z,14.33
2023-05-19T08:17:08.195Z,14.36
2023-05-19T08:18:08.137Z,14.40
2023-05-19T08:19:08.153Z,14.39
2023-05-19T08:20:08.187Z,14.43
2023-05-19T08:21:08.112Z,14.46
2023-05-19T08:22:08.112Z,14.51
2023-05-19T08:23:08.077Z,14.55
2023-05-19T08:24:08.129Z,14.62
2023-05-19T08:25:08.050Z,14.68
2023-05-19T08:26:08.046Z,14.72
2023-05-19T08:27:08.024Z,14.70
2023-05-19T08:28:08.022Z,14.75
2023-05-19T08:29:08.005Z,14.73
2023-05-19T08:30:08.024Z,14.69
2023-05-19T08:31:07.994Z,14.64
2023-05-19T08:32:11.615Z,14.61
2023-05-19T08:33:08.002Z,14.60
2023-05-19T08:34:07.990Z,14.61
2023-05-19T08:35:07.927Z,14.69
2023-05-19T08:36:09.664Z,14.75
2023-05-19T08:37:07.898Z,14.80
2023-05-19T08:38:07.904Z,14.88
2023-05-19T08:39:07.889Z,14.98
2023-05-19T08:40:07.947Z,15.07
2023-05-19T08:41:07.891Z,15.13
2023-05-19T08:42:07.876Z,15.14
2023-05-19T08:43:07.839Z,15.14
2023-05-19T08:44:07.843Z,15.16
2023-05-19T08:45:07.882Z,15.14
2023-05-19T08:46:07.813Z,15.17
2023-05-19T08:47:07.992Z,15.17
2023-05-19T08:48:07.826Z,15.19
2023-05-19T08:49:07.786Z,15.21
2023-05-19T08:50:07.871Z,15.20
2023-05-19T08:51:07.791Z,15.29
2023-05-19T08:52:07.754Z,15.43
2023-05-19T08:53:15.101Z,15.53
2023-05-19T08:54:08.735Z,15.53
2023-05-19T08:55:07.728Z,15.50
2023-05-19T08:56:07.719Z,15.53
2023-05-19T08:57:07.733Z,15.53
2023-05-19T08:58:07.700Z,15.54
2023-05-19T08:59:11.592Z,15.56
2023-05-19T09:00:07.641Z,15.57
2023-05-19T09:01:07.729Z,15.62
2023-05-19T09:02:07.694Z,15.67
2023-05-19T09:04:07.713Z,15.82
2023-05-19T09:05:07.650Z,15.84
2023-05-19T09:06:07.728Z,15.86
2023-05-19T09:07:07.640Z,15.83
2023-05-19T09:08:07.528Z,15.83
2023-05-19T09:09:07.613Z,15.83
2023-05-19T09:10:07.509Z,15.83
2023-05-19T09:11:07.583Z,15.78
2023-05-19T09:12:07.516Z,15.83
2023-05-19T09:13:07.499Z,15.84
2023-05-19T09:14:07.484Z,15.89
2023-05-19T09:15:07.821Z,15.96
2023-05-19T09:16:07.498Z,16.05
2023-05-19T09:17:07.613Z,16.20
2023-05-19T09:18:07.748Z,16.30
2023-05-19T09:19:07.428Z,16.38
2023-05-19T09:20:07.496Z,16.39
2023-05-19T09:21:07.598Z,16.42
2023-05-19T09:22:07.462Z,16.42
2023-05-19T09:23:07.406Z,16.46
2023-05-19T09:24:07.379Z,16.49
2023-05-19T09:25:07.649Z,16.52
2023-05-19T09:26:07.888Z,16.49
2023-05-19T09:27:07.411Z,16.38
2023-05-19T09:28:07.368Z,16.34
2023-05-19T09:29:07.335Z,16.31
2023-05-19T09:30:07.307Z,16.33
2023-05-19T09:31:07.342Z,16.34
2023-05-19T09:32:09.068Z,16.39
2023-05-19T09:33:07.336Z,16.48
2023-05-19T09:34:07.279Z,16.58
2023-05-19T09:35:07.301Z,16.73
2023-05-19T09:36:07.234Z,16.81
2023-05-19T09:37:07.220Z,16.85
2023-05-19T09:38:07.236Z,16.85
2023-05-19T09:39:07.191Z,16.82
2023-05-19T09:40:07.229Z,16.82
2023-05-19T09:41:07.233Z,16.85
2023-05-19T09:42:07.495Z,16.82
2023-05-19T09:43:07.182Z,16.82
2023-05-19T09:44:07.165Z,16.82
2023-05-19T09:45:07.134Z,16.83
2023-05-19T09:46:07.310Z,16.85
2023-05-19T09:47:07.124Z,16.83
2023-05-19T09:48:07.116Z,16.97
2023-05-19T09:49:07.117Z,17.12
2023-05-19T09:50:07.083Z,17.25
2023-05-19T09:51:07.410Z,17.34
2023-05-19T09:52:07.098Z,17.38
2023-05-19T09:53:07.060Z,17.48
2023-05-19T09:54:07.020Z,17.58
2023-05-19T09:55:06.994Z,17.72
2023-05-19T09:56:07.012Z,17.74
2023-05-19T09:57:08.348Z,17.64
2023-05-19T09:58:14.026Z,17.59
2023-05-19T09:59:13.980Z,17.58
2023-05-19T10:00:07.015Z,17.62
2023-05-19T10:01:07.045Z,17.63
2023-05-19T10:02:06.964Z,17.56
2023-05-19T10:03:07.017Z,17.59
2023-05-19T10:04:06.905Z,17.77
2023-05-19T10:05:11.935Z,17.84
2023-05-19T10:06:07.879Z,18.02
2023-05-19T10:07:07.009Z,18.23
2023-05-19T10:08:06.862Z,18.35
2023-05-19T10:09:06.848Z,18.51
2023-05-19T10:10:07.188Z,18.65
2023-05-19T10:11:06.819Z,18.78
2023-05-19T10:12:06.862Z,18.82
2023-05-19T10:13:06.808Z,18.88
2023-05-19T10:14:06.801Z,18.81
2023-05-19T10:15:06.794Z,18.69
2023-05-19T10:16:06.824Z,18.63
2023-05-19T10:17:07.258Z,18.72
2023-05-19T10:18:07.178Z,18.73
2023-05-19T10:19:06.844Z,18.72
2023-05-19T10:20:06.714Z,18.63
2023-05-19T10:21:06.720Z,18.42
2023-05-19T10:22:06.691Z,18.15
2023-05-19T10:23:06.722Z,18.00
2023-05-19T10:24:06.681Z,17.95
2023-05-19T10:25:06.693Z,17.99
2023-05-19T10:26:07.059Z,18.08
2023-05-19T10:27:06.643Z,18.14
2023-05-19T10:28:06.657Z,18.18
2023-05-19T10:29:06.660Z,18.32
2023-05-19T10:30:08.254Z,18.45
2023-05-19T10:31:06.630Z,18.30
2023-05-19T10:32:06.661Z,18.30
2023-05-19T10:33:06.616Z,18.36
2023-05-19T10:34:07.366Z,18.29
2023-05-19T10:35:06.591Z,18.18
2023-05-19T10:36:06.561Z,18.10
2023-05-19T10:37:06.701Z,18.07
2023-05-19T10:38:06.513Z,18.11
2023-05-19T10:39:06.510Z,18.30
2023-05-19T10:40:08.461Z,18.48
2023-05-19T10:41:06.471Z,18.66
2023-05-19T10:42:06.470Z,18.85
2023-05-19T10:43:06.464Z,19.00
2023-05-19T10:44:06.435Z,19.16
2023-05-19T10:45:06.454Z,19.33
2023-05-19T10:46:06.408Z,19.44
2023-05-19T10:47:06.446Z,19.51
2023-05-19T10:48:06.416Z,19.68
2023-05-19T10:49:06.500Z,19.80
2023-05-19T10:50:06.388Z,19.87
2023-05-19T10:51:08.585Z,19.73
2023-05-19T10:52:06.587Z,19.77
2023-05-19T10:53:06.362Z,19.84
2023-05-19T10:54:06.394Z,19.78
2023-05-19T10:55:08.197Z,19.58
2023-05-19T10:56:06.320Z,19.43
2023-05-19T10:57:06.297Z,19.11
2023-05-19T10:58:06.296Z,18.92
2023-05-19T10:59:06.281Z,18.87
2023-05-19T11:00:06.257Z,18.94
2023-05-19T11:01:06.259Z,19.00
2023-05-19T11:02:06.248Z,19.19
2023-05-19T11:03:06.284Z,19.36
2023-05-19T11:04:06.235Z,19.37
2023-05-19T11:05:06.215Z,19.50
2023-05-19T11:06:06.195Z,19.59
2023-05-19T11:07:06.194Z,19.74
2023-05-19T11:08:06.209Z,19.81
2023-05-19T11:09:06.218Z,19.88
2023-05-19T11:10:06.212Z,19.88
2023-05-19T11:11:06.385Z,19.87
2023-05-19T11:12:06.197Z,19.94
2023-05-19T11:13:06.480Z,19.76
2023-05-19T11:14:06.132Z,19.69
2023-05-19T11:15:06.152Z,19.66
2023-05-19T11:16:06.111Z,19.59
2023-05-19T11:17:06.212Z,19.58
2023-05-19T11:18:06.107Z,19.55
2023-05-19T11:19:06.176Z,19.50
2023-05-19T11:20:06.030Z,19.50
2023-05-19T11:21:06.080Z,19.43
2023-05-19T11:22:06.076Z,19.46
2023-05-19T11:23:06.065Z,19.56
2023-05-19T11:24:06.098Z,19.62
2023-05-19T11:25:05.976Z,19.68
2023-05-19T11:26:06.015Z,19.80
2023-05-19T11:27:05.993Z,19.94
2023-05-19T11:28:05.946Z,20.01
2023-05-19T11:29:05.963Z,20.08
2023-05-19T11:30:05.920Z,20.17
2023-05-19T11:31:05.918Z,20.16
2023-05-19T11:32:06.026Z,20.18
2023-05-19T11:33:05.950Z,20.24
2023-05-19T11:34:05.941Z,20.36
2023-05-19T11:35:05.873Z,20.52
2023-05-19T11:36:05.903Z,20.64
2023-05-19T11:37:05.855Z,20.74
2023-05-19T11:38:05.847Z,20.74
2023-05-19T11:39:05.814Z,20.64
2023-05-19T11:40:05.844Z,20.55
2023-05-19T11:41:05.847Z,20.35
2023-05-19T11:42:05.817Z,20.10
2023-05-19T11:43:05.781Z,20.01
2023-05-19T11:44:05.809Z,19.99
2023-05-19T11:45:05.779Z,20.03
2023-05-19T11:46:13.164Z,19.98
2023-05-19T11:47:05.716Z,19.86
2023-05-19T11:48:05.727Z,19.91
2023-05-19T11:49:13.070Z,19.99
2023-05-19T11:50:05.698Z,20.13
2023-05-19T11:51:05.670Z,20.05
2023-05-19T11:52:12.696Z,20.05
2023-05-19T11:53:05.649Z,19.95
2023-05-19T11:54:05.677Z,20.08
2023-05-19T11:55:05.647Z,20.28
2023-05-19T11:56:05.633Z,20.47
2023-05-19T11:57:05.605Z,20.69
2023-05-19T11:58:06.107Z,20.52
2023-05-19T11:59:05.600Z,20.72
2023-05-19T12:00:05.584Z,20.92
2023-05-19T12:01:05.577Z,20.95
2023-05-19T12:02:05.559Z,20.95
2023-05-19T12:03:05.932Z,20.73
2023-05-19T12:04:05.666Z,20.64
2023-05-19T12:05:05.670Z,20.61
2023-05-19T12:06:05.569Z,20.58
2023-05-19T12:07:05.574Z,20.58
2023-05-19T12:08:05.512Z,20.57
2023-05-19T12:09:05.537Z,20.66
2023-05-19T12:10:05.464Z,20.67
2023-05-19T12:11:05.462Z,20.55
2023-05-19T12:12:05.450Z,20.54
2023-05-19T12:13:05.458Z,20.55
2023-05-19T12:14:05.421Z,20.36
2023-05-19T12:15:05.422Z,20.26
2023-05-19T12:16:05.550Z,20.35
2023-05-19T12:17:05.776Z,20.48
2023-05-19T12:18:05.410Z,20.48
2023-05-19T12:19:05.462Z,20.50
2023-05-19T12:20:05.365Z,20.36
2023-05-19T12:21:05.331Z,20.43
2023-05-19T12:22:05.321Z,20.32
2023-05-19T12:23:05.338Z,20.39
2023-05-19T12:24:05.311Z,20.41
2023-05-19T12:25:05.317Z,20.54
2023-05-19T12:26:05.324Z,20.59
2023-05-19T12:27:05.273Z,20.64
2023-05-19T12:28:05.383Z,20.70
2023-05-19T12:29:05.291Z,20.57
2023-05-19T12:30:05.223Z,20.59
2023-05-19T12:31:05.255Z,20.64
2023-05-19T12:32:05.269Z,20.73
2023-05-19T12:33:05.531Z,20.80
2023-05-19T12:34:05.184Z,20.97
2023-05-19T12:35:05.207Z,21.07
2023-05-19T12:36:05.182Z,21.16
2023-05-19T12:37:05.522Z,21.27
2023-05-19T12:38:05.336Z,21.21
2023-05-19T12:39:05.134Z,21.16
2023-05-19T12:40:05.212Z,21.19
2023-05-19T12:41:05.115Z,21.12
2023-05-19T12:42:05.212Z,20.97
2023-05-19T12:43:05.090Z,20.95
2023-05-19T12:44:05.391Z,20.97
2023-05-19T12:45:05.082Z,20.98
2023-05-19T12:46:05.064Z,20.95
2023-05-19T12:47:05.055Z,20.87
2023-05-19T12:48:05.088Z,20.88
2023-05-19T12:49:05.034Z,21.01
2023-05-19T12:50:05.146Z,21.27
2023-05-19T12:51:04.994Z,21.44
2023-05-19T12:52:09.250Z,21.58
2023-05-19T12:53:05.994Z,21.71
2023-05-19T12:54:06.781Z,21.88
2023-05-19T12:55:05.297Z,21.83
2023-05-19T12:56:04.993Z,21.91
2023-05-19T12:57:04.926Z,22.00
2023-05-19T12:58:04.912Z,22.10
2023-05-19T12:59:04.933Z,22.17
2023-05-19T13:00:06.132Z,22.05
2023-05-19T13:01:05.022Z,21.88
2023-05-19T13:02:05.393Z,21.71
2023-05-19T13:03:05.413Z,21.67
2023-05-19T13:04:06.381Z,21.62
2023-05-19T13:05:04.904Z,21.64